createdAt,value
2022-09-13T00:00:46.515Z,987.60
2022-09-13T00:01:46.503Z,987.60
2022-09-13T00:02:46.423Z,987.63
2022-09-13T00:03:46.461Z,987.65
2022-09-13T00:04:46.390Z,987.70
2022-09-13T00:05:46.401Z,987.69
2022-09-13T00:06:46.410Z,987.67
2022-09-13T00:07:46.361Z,987.69
2022-09-13T00:08:46.416Z,987.72
2022-09-13T00:09:46.374Z,987.77
2022-09-13T00:10:46.971Z,987.82
2022-09-13T00:11:46.341Z,987.83
2022-09-13T00:12:46.323Z,987.89
2022-09-13T00:13:46.313Z,987.98
2022-09-13T00:14:46.304Z,988.06
2022-09-13T00:15:46.293Z,988.09
2022-09-13T00:16:46.322Z,988.14
2022-09-13T00:17:46.291Z,988.18
2022-09-13T00:18:46.262Z,988.17
2022-09-13T00:19:46.234Z,988.21
2022-09-13T00:20:46.289Z,988.14
2022-09-13T00:21:46.235Z,988.15
2022-09-13T00:22:46.225Z,988.10
2022-09-13T00:23:46.214Z,988.09
2022-09-13T00:24:46.243Z,988.04
2022-09-13T00:25:46.185Z,988.04
2022-09-13T00:26:46.174Z,987.94
2022-09-13T00:27:46.215Z,987.91
2022-09-13T00:28:46.236Z,987.91
2022-09-13T00:29:47.101Z,987.89
2022-09-13T00:30:46.151Z,987.86
2022-09-13T00:31:46.151Z,987.80
2022-09-13T00:32:46.154Z,987.74
2022-09-13T00:33:46.102Z,987.73
2022-09-13T00:34:46.095Z,987.68
2022-09-13T00:35:46.113Z,987.66
2022-09-13T00:36:46.766Z,987.64
2022-09-13T00:37:46.093Z,987.64
2022-09-13T00:38:46.075Z,987.60
2022-09-13T00:39:49.621Z,987.57
2022-09-13T00:40:46.044Z,987.55
2022-09-13T00:41:46.025Z,987.60
2022-09-13T00:42:46.015Z,987.58
2022-09-13T00:43:46.015Z,987.56
2022-09-13T00:44:45.984Z,987.57
2022-09-13T00:45:45.998Z,987.60
2022-09-13T00:46:45.978Z,987.59
2022-09-13T00:47:45.955Z,987.62
2022-09-13T00:48:45.954Z,987.62
2022-09-13T00:49:45.933Z,987.58
2022-09-13T00:50:45.927Z,987.59
2022-09-13T00:51:45.915Z,987.56
2022-09-13T00:52:46.857Z,987.49
2022-09-13T00:53:45.971Z,987.56
2022-09-13T00:54:45.899Z,987.53
2022-09-13T00:55:45.876Z,987.54
2022-09-13T00:56:45.879Z,987.49
2022-09-13T00:57:45.859Z,987.48
2022-09-13T00:58:45.877Z,987.47
2022-09-13T00:59:45.859Z,987.50
2022-09-13T01:00:45.878Z,987.49
2022-09-13T01:01:45.859Z,987.52
2022-09-13T01:02:45.815Z,987.51
2022-09-13T01:03:45.844Z,987.51
2022-09-13T01:04:45.798Z,987.48
2022-09-13T01:05:45.765Z,987.46
2022-09-13T01:06:45.766Z,987.50
2022-09-13T01:07:45.745Z,987.50
2022-09-13T01:08:45.747Z,987.51
2022-09-13T01:09:46.397Z,987.49
2022-09-13T01:10:45.767Z,987.50
2022-09-13T01:11:45.718Z,987.52
2022-09-13T01:12:45.708Z,987.55
2022-09-13T01:13:45.739Z,987.58
2022-09-13T01:14:45.698Z,987.64
2022-09-13T01:15:45.684Z,987.66
2022-09-13T01:16:47.908Z,987.62
2022-09-13T01:17:45.656Z,987.64
2022-09-13T01:18:45.637Z,987.67
2022-09-13T01:19:45.627Z,987.64
2022-09-13T01:20:45.628Z,987.64
2022-09-13T01:21:45.618Z,987.60
2022-09-13T01:22:45.619Z,987.60
2022-09-13T01:23:45.646Z,987.57
2022-09-13T01:24:45.605Z,987.50
2022-09-13T01:25:45.577Z,987.49
2022-09-13T01:26:45.557Z,987.39
2022-09-13T01:27:45.538Z,987.40
2022-09-13T01:28:45.557Z,987.39
2022-09-13T01:29:45.528Z,987.35
2022-09-13T01:30:45.517Z,987.36
2022-09-13T01:31:45.548Z,987.30
2022-09-13T01:32:45.536Z,987.24
2022-09-13T01:33:45.576Z,987.20
2022-09-13T01:34:45.499Z,987.20
2022-09-13T01:35:45.469Z,987.14
2022-09-13T01:36:45.468Z,987.14
2022-09-13T01:37:45.460Z,987.14
2022-09-13T01:38:45.443Z,987.15
2022-09-13T01:39:45.457Z,987.10
2022-09-13T01:40:45.428Z,987.14
2022-09-13T01:41:45.438Z,987.12
2022-09-13T01:42:45.398Z,987.13
2022-09-13T01:43:46.058Z,987.19
2022-09-13T01:44:45.379Z,987.20
2022-09-13T01:45:45.431Z,987.23
2022-09-13T01:46:45.408Z,987.23
2022-09-13T01:47:46.036Z,987.25
2022-09-13T01:48:45.381Z,987.25
2022-09-13T01:49:45.327Z,987.24
2022-09-13T01:50:45.341Z,987.19
2022-09-13T01:51:45.321Z,987.12
2022-09-13T01:52:45.311Z,987.03
2022-09-13T01:53:45.292Z,987.02
2022-09-13T01:54:45.283Z,987.00
2022-09-13T01:55:45.520Z,986.96
2022-09-13T01:56:45.279Z,986.87
2022-09-13T01:57:45.249Z,986.83
2022-09-13T01:58:45.270Z,986.75
2022-09-13T01:59:45.220Z,986.76
2022-09-13T02:00:45.340Z,986.76
2022-09-13T02:01:45.267Z,986.82
2022-09-13T02:02:45.210Z,986.85
2022-09-13T02:03:45.217Z,986.88
2022-09-13T02:04:45.189Z,986.90
2022-09-13T02:05:45.173Z,986.90
2022-09-13T02:06:45.162Z,986.95
2022-09-13T02:07:45.170Z,986.93
2022-09-13T02:08:45.142Z,986.92
2022-09-13T02:09:45.122Z,986.90
2022-09-13T02:10:45.139Z,986.84
2022-09-13T02:11:45.112Z,986.85
2022-09-13T02:12:45.451Z,986.86
2022-09-13T02:13:45.152Z,986.93
2022-09-13T02:14:45.081Z,986.88
2022-09-13T02:15:45.061Z,986.85
2022-09-13T02:16:45.112Z,986.85
2022-09-13T02:17:45.071Z,986.80
2022-09-13T02:18:45.038Z,986.82
2022-09-13T02:19:45.021Z,986.81
2022-09-13T02:20:45.042Z,986.77
2022-09-13T02:21:45.012Z,986.74
2022-09-13T02:22:45.413Z,986.72
2022-09-13T02:23:45.017Z,986.70
2022-09-13T02:24:45.002Z,986.72
2022-09-13T02:25:45.031Z,986.71
2022-09-13T02:26:44.993Z,986.76
2022-09-13T02:27:44.942Z,986.81
2022-09-13T02:28:44.964Z,986.84
2022-09-13T02:29:44.934Z,986.87
2022-09-13T02:30:44.924Z,986.91
2022-09-13T02:31:45.016Z,986.90
2022-09-13T02:32:44.905Z,986.94
2022-09-13T02:33:45.522Z,986.93
2022-09-13T02:34:44.907Z,987.02
2022-09-13T02:35:44.882Z,987.02
2022-09-13T02:36:44.854Z,986.99
2022-09-13T02:37:44.842Z,986.95
2022-09-13T02:38:44.833Z,986.98
2022-09-13T02:39:44.913Z,986.97
2022-09-13T02:40:44.819Z,986.98
2022-09-13T02:41:44.869Z,987.11
2022-09-13T02:42:44.792Z,987.19
2022-09-13T02:43:45.013Z,987.21
2022-09-13T02:44:44.794Z,987.20
2022-09-13T02:45:44.814Z,987.21
2022-09-13T02:46:44.756Z,987.25
2022-09-13T02:47:44.754Z,987.24
2022-09-13T02:48:44.735Z,987.20
2022-09-13T02:49:44.756Z,987.17
2022-09-13T02:50:44.726Z,987.10
2022-09-13T02:51:44.705Z,987.08
2022-09-13T02:52:44.696Z,987.14
2022-09-13T02:53:44.679Z,987.10
2022-09-13T02:54:44.674Z,987.12
2022-09-13T02:55:44.804Z,987.15
2022-09-13T02:56:44.675Z,987.16
2022-09-13T02:57:44.634Z,987.17
2022-09-13T02:58:44.637Z,987.02
2022-09-13T02:59:44.626Z,987.02
2022-09-13T03:00:44.636Z,986.91
2022-09-13T03:01:44.616Z,986.91
2022-09-13T03:02:44.597Z,986.91
2022-09-13T03:03:44.577Z,986.89
2022-09-13T03:04:44.584Z,986.83
2022-09-13T03:05:44.617Z,986.81
2022-09-13T03:07:40.571Z,986.75
2022-09-13T03:08:40.562Z,986.73
2022-09-13T03:09:40.562Z,986.76
2022-09-13T03:10:40.572Z,986.79
2022-09-13T03:11:40.531Z,986.86
2022-09-13T03:12:40.519Z,986.85
2022-09-13T03:13:40.542Z,986.90
2022-09-13T03:14:40.514Z,986.95
2022-09-13T03:15:40.480Z,987.03
2022-09-13T03:16:40.523Z,986.97
2022-09-13T03:17:40.502Z,986.97
2022-09-13T03:18:40.483Z,986.91
2022-09-13T03:19:40.433Z,987.00
2022-09-13T03:20:40.444Z,986.88
2022-09-13T03:21:40.446Z,986.86
2022-09-13T03:22:40.411Z,986.81
2022-09-13T03:23:40.414Z,986.85
2022-09-13T03:24:40.384Z,986.77
2022-09-13T03:25:40.387Z,986.74
2022-09-13T03:26:40.394Z,986.75
2022-09-13T03:27:40.413Z,986.69
2022-09-13T03:28:40.385Z,986.67
2022-09-13T03:29:40.335Z,986.65
2022-09-13T03:30:40.340Z,986.67
2022-09-13T03:31:40.367Z,986.72
2022-09-13T03:32:40.313Z,986.77
2022-09-13T03:33:40.330Z,986.83
2022-09-13T03:34:40.280Z,986.82
2022-09-13T03:35:40.264Z,986.79
2022-09-13T03:36:40.264Z,986.81
2022-09-13T03:37:40.263Z,986.78
2022-09-13T03:38:40.233Z,986.81
2022-09-13T03:39:40.260Z,986.85
2022-09-13T03:40:40.238Z,986.87
2022-09-13T03:41:40.206Z,986.88
2022-09-13T03:42:40.226Z,986.88
2022-09-13T03:43:40.226Z,986.87
2022-09-13T03:44:40.227Z,986.90
2022-09-13T03:45:40.217Z,986.92
2022-09-13T03:46:40.177Z,986.96
2022-09-13T03:47:40.194Z,986.93
2022-09-13T03:48:40.137Z,986.88
2022-09-13T03:49:40.133Z,986.99
2022-09-13T03:50:40.113Z,986.96
2022-09-13T03:51:40.094Z,986.95
2022-09-13T03:52:43.340Z,987.04
2022-09-13T03:53:41.107Z,987.01
2022-09-13T03:54:40.099Z,986.90
2022-09-13T03:55:40.095Z,986.89
2022-09-13T03:56:40.068Z,986.83
2022-09-13T03:57:40.037Z,986.84
2022-09-13T03:58:40.049Z,986.85
2022-09-13T03:59:40.050Z,986.82
2022-09-13T04:00:40.056Z,986.83
2022-09-13T04:01:40.007Z,986.82
2022-09-13T04:02:40.030Z,986.79
2022-09-13T04:03:40.026Z,986.74
2022-09-13T04:04:39.965Z,986.69
2022-09-13T04:05:39.980Z,986.65
2022-09-13T04:06:39.995Z,986.67
2022-09-13T04:07:39.950Z,986.63
2022-09-13T04:08:39.936Z,986.65
2022-09-13T04:09:39.914Z,986.66
2022-09-13T04:10:39.925Z,986.65
2022-09-13T04:11:39.925Z,986.66
2022-09-13T04:12:39.888Z,986.65
2022-09-13T04:13:39.900Z,986.66
2022-09-13T04:14:39.876Z,986.69
2022-09-13T04:15:39.886Z,986.67
2022-09-13T04:16:39.895Z,986.72
2022-09-13T04:17:39.870Z,986.71
2022-09-13T04:18:39.842Z,986.69
2022-09-13T04:19:39.817Z,986.77
2022-09-13T04:20:39.809Z,986.80
2022-09-13T04:21:39.817Z,986.79
2022-09-13T04:22:39.797Z,986.86
2022-09-13T04:23:39.809Z,986.85
2022-09-13T04:24:39.787Z,986.85
2022-09-13T04:25:39.777Z,986.87
2022-09-13T04:26:39.758Z,986.85
2022-09-13T04:27:39.721Z,986.88
2022-09-13T04:28:39.727Z,986.85
2022-09-13T04:29:39.726Z,986.89
2022-09-13T04:30:42.694Z,986.89
2022-09-13T04:31:39.873Z,986.97
2022-09-13T04:32:39.678Z,986.88
2022-09-13T04:33:39.656Z,986.88
2022-09-13T04:34:39.646Z,986.83
2022-09-13T04:35:39.693Z,986.94
2022-09-13T04:36:39.657Z,986.86
2022-09-13T04:37:39.678Z,986.76
2022-09-13T04:38:39.620Z,986.80
2022-09-13T04:39:39.654Z,986.78
2022-09-13T04:40:39.602Z,986.72
2022-09-13T04:41:39.579Z,986.75
2022-09-13T04:42:39.608Z,986.73
2022-09-13T04:43:39.587Z,986.72
2022-09-13T04:44:39.557Z,986.75
2022-09-13T04:45:40.251Z,986.71
2022-09-13T04:46:39.537Z,986.73
2022-09-13T04:47:39.517Z,986.74
2022-09-13T04:48:39.517Z,986.63
2022-09-13T04:49:39.547Z,986.63
2022-09-13T04:50:39.449Z,986.57
2022-09-13T04:51:39.484Z,986.59
2022-09-13T04:52:39.450Z,986.60
2022-09-13T04:53:39.399Z,986.61
2022-09-13T04:54:39.464Z,986.62
2022-09-13T04:55:39.439Z,986.63
2022-09-13T04:56:39.439Z,986.60
2022-09-13T04:57:39.460Z,986.59
2022-09-13T04:58:39.432Z,986.61
2022-09-13T04:59:39.388Z,986.63
2022-09-13T05:00:39.398Z,986.67
2022-09-13T05:01:39.472Z,986.69
2022-09-13T05:02:39.379Z,986.74
2022-09-13T05:03:39.309Z,986.76
2022-09-13T05:04:39.327Z,986.80
2022-09-13T05:05:39.287Z,986.79
2022-09-13T05:06:39.288Z,986.82
2022-09-13T05:07:39.270Z,986.84
2022-09-13T05:08:39.253Z,986.78
2022-09-13T05:09:39.231Z,986.84
2022-09-13T05:10:39.233Z,986.87
2022-09-13T05:11:39.224Z,986.97
2022-09-13T05:12:39.220Z,986.93
2022-09-13T05:13:39.200Z,986.95
2022-09-13T05:14:39.200Z,986.96
2022-09-13T05:15:39.231Z,986.96
2022-09-13T05:16:39.220Z,986.95
2022-09-13T05:17:39.157Z,986.94
2022-09-13T05:18:44.447Z,986.93
2022-09-13T05:19:40.128Z,986.86
2022-09-13T05:20:39.150Z,986.89
2022-09-13T05:21:39.798Z,986.88
2022-09-13T05:22:39.099Z,986.79
2022-09-13T05:23:39.100Z,986.78
2022-09-13T05:24:39.171Z,986.70
2022-09-13T05:25:49.931Z,986.68
2022-09-13T05:26:39.068Z,986.61
2022-09-13T05:27:39.053Z,986.62
2022-09-13T05:28:39.040Z,986.63
2022-09-13T05:29:39.036Z,986.71
2022-09-13T05:30:42.242Z,986.68
2022-09-13T05:31:39.134Z,986.74
2022-09-13T05:32:39.010Z,986.80
2022-09-13T05:33:39.011Z,986.74
2022-09-13T05:34:38.972Z,986.75
2022-09-13T05:35:38.960Z,986.74
2022-09-13T05:36:38.962Z,986.76
2022-09-13T05:37:38.951Z,986.87
2022-09-13T05:38:38.940Z,986.82
2022-09-13T05:40:07.445Z,986.83
2022-09-13T05:40:40.105Z,986.84
2022-09-13T05:41:38.926Z,986.79
2022-09-13T05:42:38.942Z,986.76
2022-09-13T05:43:38.891Z,986.77
2022-09-13T05:44:38.874Z,986.71
2022-09-13T05:45:38.916Z,986.73
2022-09-13T05:46:38.963Z,986.75
2022-09-13T05:47:38.839Z,986.75
2022-09-13T05:48:38.862Z,986.84
2022-09-13T05:49:50.034Z,986.79
2022-09-13T05:50:58.337Z,986.77
2022-09-13T05:51:39.841Z,986.72
2022-09-13T05:52:38.780Z,986.70
2022-09-13T05:53:38.800Z,986.70
2022-09-13T05:54:38.790Z,986.70
2022-09-13T05:55:38.763Z,986.71
2022-09-13T05:56:38.753Z,986.77
2022-09-13T05:57:38.767Z,986.79
2022-09-13T05:58:38.723Z,986.87
2022-09-13T05:59:38.723Z,986.88
2022-09-13T06:00:38.725Z,986.83
2022-09-13T06:01:38.753Z,986.88
2022-09-13T06:02:38.777Z,986.81
2022-09-13T06:03:38.675Z,986.81
2022-09-13T06:04:38.662Z,986.84
2022-09-13T06:05:38.651Z,986.91
2022-09-13T06:06:38.641Z,986.85
2022-09-13T06:07:38.955Z,986.92
2022-09-13T06:08:38.612Z,986.96
2022-09-13T06:09:38.612Z,986.90
2022-09-13T06:10:38.631Z,986.87
2022-09-13T06:11:38.594Z,986.87
2022-09-13T06:12:38.630Z,986.88
2022-09-13T06:13:38.606Z,986.83
2022-09-13T06:14:38.583Z,986.83
2022-09-13T06:15:43.137Z,986.85
2022-09-13T06:16:38.602Z,986.85
2022-09-13T06:17:38.534Z,986.83
2022-09-13T06:18:38.624Z,986.85
2022-09-13T06:19:38.512Z,986.81
2022-09-13T06:20:38.492Z,986.79
2022-09-13T06:21:38.485Z,986.79
2022-09-13T06:22:38.482Z,986.76
2022-09-13T06:23:38.474Z,986.77
2022-09-13T06:24:40.124Z,986.74
2022-09-13T06:25:38.458Z,986.70
2022-09-13T06:26:38.446Z,986.75
2022-09-13T06:27:38.432Z,986.76
2022-09-13T06:28:38.483Z,986.77
2022-09-13T06:29:38.403Z,986.74
2022-09-13T06:30:38.436Z,986.72
2022-09-13T06:31:38.494Z,986.74
2022-09-13T06:32:38.389Z,986.71
2022-09-13T06:33:38.462Z,986.69
2022-09-13T06:34:38.355Z,986.71
2022-09-13T06:35:38.346Z,986.69
2022-09-13T06:36:38.357Z,986.72
2022-09-13T06:37:38.332Z,986.74
2022-09-13T06:38:38.316Z,986.76
2022-09-13T06:39:38.336Z,986.73
2022-09-13T06:40:38.294Z,986.76
2022-09-13T06:41:38.454Z,986.76
2022-09-13T06:42:38.280Z,986.79
2022-09-13T06:43:38.293Z,986.80
2022-09-13T06:44:38.271Z,986.81
2022-09-13T06:45:38.254Z,986.80
2022-09-13T06:46:38.314Z,986.76
2022-09-13T06:47:38.216Z,986.79
2022-09-13T06:48:38.356Z,986.77
2022-09-13T06:49:38.195Z,986.81
2022-09-13T06:50:38.195Z,986.82
2022-09-13T06:51:38.176Z,986.84
2022-09-13T06:52:38.199Z,986.83
2022-09-13T06:53:38.166Z,986.89
2022-09-13T06:54:39.135Z,986.90
2022-09-13T06:55:38.146Z,986.94
2022-09-13T06:56:38.138Z,986.92
2022-09-13T06:57:38.136Z,986.89
2022-09-13T06:58:38.208Z,986.93
2022-09-13T06:59:38.104Z,986.90
2022-09-13T07:00:38.111Z,986.87
2022-09-13T07:01:38.177Z,987.00
2022-09-13T07:02:38.084Z,986.95
2022-09-13T07:03:38.118Z,986.91
2022-09-13T07:04:38.035Z,986.90
2022-09-13T07:05:38.054Z,986.89
2022-09-13T07:06:38.024Z,986.87
2022-09-13T07:07:38.016Z,986.85
2022-09-13T07:08:38.137Z,986.85
2022-09-13T07:09:38.006Z,986.93
2022-09-13T07:10:37.987Z,986.91
2022-09-13T07:11:37.997Z,986.91
2022-09-13T07:12:37.978Z,986.93
2022-09-13T07:13:37.947Z,986.87
2022-09-13T07:14:37.956Z,986.84
2022-09-13T07:15:37.996Z,986.77
2022-09-13T07:16:37.936Z,986.79
2022-09-13T07:17:37.906Z,986.74
2022-09-13T07:18:37.996Z,986.77
2022-09-13T07:19:37.885Z,986.77
2022-09-13T07:20:37.894Z,986.74
2022-09-13T07:21:37.866Z,986.76
2022-09-13T07:22:37.876Z,986.78
2022-09-13T07:23:37.858Z,986.76
2022-09-13T07:24:37.869Z,986.72
2022-09-13T07:25:37.937Z,986.74
2022-09-13T07:26:37.867Z,986.73
2022-09-13T07:27:37.806Z,986.71
2022-09-13T07:28:37.807Z,986.76
2022-09-13T07:29:37.786Z,986.76
2022-09-13T07:30:37.795Z,986.75
2022-09-13T07:31:37.768Z,986.79
2022-09-13T07:32:37.787Z,986.79
2022-09-13T07:33:37.747Z,986.79
2022-09-13T07:34:37.748Z,986.82
2022-09-13T07:35:37.742Z,986.79
2022-09-13T07:36:37.729Z,986.85
2022-09-13T07:37:37.749Z,986.80
2022-09-13T07:38:38.678Z,986.80
2022-09-13T07:39:37.716Z,986.89
2022-09-13T07:40:37.972Z,986.90
2022-09-13T07:41:37.688Z,986.99
2022-09-13T07:42:38.525Z,986.96
2022-09-13T07:43:37.636Z,986.96
2022-09-13T07:44:39.830Z,987.00
2022-09-13T07:45:37.677Z,987.04
2022-09-13T07:46:37.695Z,987.09
2022-09-13T07:47:38.286Z,987.08
2022-09-13T07:48:37.593Z,987.10
2022-09-13T07:49:37.581Z,987.11
2022-09-13T07:50:37.569Z,987.14
2022-09-13T07:51:37.589Z,987.14
2022-09-13T07:52:37.548Z,987.09
2022-09-13T07:53:37.571Z,987.09
2022-09-13T07:54:37.576Z,987.08
2022-09-13T07:55:37.896Z,987.10
2022-09-13T07:56:37.500Z,987.05
2022-09-13T07:57:37.500Z,987.05
2022-09-13T07:58:37.518Z,987.05
2022-09-13T07:59:39.020Z,987.11
2022-09-13T08:00:37.468Z,987.05
2022-09-13T08:01:37.534Z,987.05
2022-09-13T08:02:37.497Z,987.03
2022-09-13T08:03:37.487Z,987.04
2022-09-13T08:04:37.471Z,987.06
2022-09-13T08:05:38.383Z,987.09
2022-09-13T08:06:37.446Z,987.08
2022-09-13T08:08:35.132Z,987.07
2022-09-13T08:09:34.841Z,987.12
2022-09-13T08:10:34.161Z,987.10
2022-09-13T08:11:35.061Z,987.08
2022-09-13T08:12:34.114Z,987.12
2022-09-13T08:13:34.073Z,987.13
2022-09-13T08:14:34.743Z,987.09
2022-09-13T08:15:35.100Z,987.09
2022-09-13T08:16:34.323Z,987.14
2022-09-13T08:17:34.073Z,987.08
2022-09-13T08:18:35.043Z,987.11
2022-09-13T08:19:35.743Z,987.06
2022-09-13T08:20:34.931Z,987.05
2022-09-13T08:21:34.152Z,987.13
2022-09-13T08:22:34.105Z,987.09
2022-09-13T08:23:33.981Z,987.11
2022-09-13T08:24:36.632Z,987.08
2022-09-13T08:25:34.898Z,987.10
2022-09-13T08:26:34.902Z,987.06
2022-09-13T08:27:34.052Z,987.05
2022-09-13T08:28:34.882Z,987.04
2022-09-13T08:29:34.903Z,987.02
2022-09-13T08:30:34.882Z,986.93
2022-09-13T08:31:34.913Z,986.95
2022-09-13T08:32:33.955Z,986.93
2022-09-13T08:33:33.884Z,986.92
2022-09-13T08:34:33.867Z,986.88
2022-09-13T08:35:33.845Z,986.88
2022-09-13T08:36:33.857Z,986.91
2022-09-13T08:37:33.865Z,986.96
2022-09-13T08:38:33.847Z,986.91
2022-09-13T08:39:33.805Z,986.94
2022-09-13T08:40:33.853Z,986.97
2022-09-13T08:41:34.753Z,986.94
2022-09-13T08:42:34.492Z,986.93
2022-09-13T08:43:33.762Z,986.93
2022-09-13T08:44:34.074Z,986.94
2022-09-13T08:45:34.734Z,986.96
2022-09-13T08:46:34.514Z,986.96
2022-09-13T08:47:34.573Z,986.93
2022-09-13T08:48:34.763Z,986.90
2022-09-13T08:49:33.804Z,986.92
2022-09-13T08:50:33.705Z,986.90
2022-09-13T08:51:34.664Z,986.88
2022-09-13T08:52:33.713Z,986.86
2022-09-13T08:53:33.653Z,986.83
2022-09-13T08:54:33.691Z,986.80
2022-09-13T08:55:33.664Z,986.79
2022-09-13T08:56:33.633Z,986.75
2022-09-13T08:57:35.193Z,986.80
2022-09-13T08:58:33.615Z,986.72
2022-09-13T08:59:34.033Z,986.72
2022-09-13T09:00:34.535Z,986.69
2022-09-13T09:01:34.606Z,986.69
2022-09-13T09:02:34.619Z,986.72
2022-09-13T09:03:34.589Z,986.74
2022-09-13T09:04:33.555Z,986.73
2022-09-13T09:05:34.502Z,986.69
2022-09-13T09:06:34.284Z,986.59
2022-09-13T09:07:34.454Z,986.53
2022-09-13T09:08:34.485Z,986.49
2022-09-13T09:09:33.526Z,986.45
2022-09-13T09:10:33.538Z,986.45
2022-09-13T09:11:33.777Z,986.36
2022-09-13T09:12:34.455Z,986.40
2022-09-13T09:13:33.465Z,986.38
2022-09-13T09:14:33.525Z,986.40
2022-09-13T09:15:34.432Z,986.46
2022-09-13T09:16:34.089Z,986.53
2022-09-13T09:17:33.514Z,986.48
2022-09-13T09:18:34.368Z,986.56
2022-09-13T09:19:34.377Z,986.51
2022-09-13T09:20:34.336Z,986.58
2022-09-13T09:21:34.334Z,986.55
2022-09-13T09:22:34.334Z,986.54
2022-09-13T09:23:34.313Z,986.59
2022-09-13T09:24:34.328Z,986.59
2022-09-13T09:25:34.340Z,986.67
2022-09-13T09:26:34.306Z,986.63
2022-09-13T09:27:34.257Z,986.60
2022-09-13T09:28:33.409Z,986.64
2022-09-13T09:29:33.288Z,986.68
2022-09-13T09:30:34.290Z,986.65
2022-09-13T09:31:34.237Z,986.73
2022-09-13T09:32:34.206Z,986.64
2022-09-13T09:33:33.265Z,986.64
2022-09-13T09:34:33.635Z,986.60
2022-09-13T09:35:34.280Z,986.61
2022-09-13T09:36:33.390Z,986.59
2022-09-13T09:37:34.167Z,986.57
2022-09-13T09:38:35.808Z,986.57
2022-09-13T09:39:34.137Z,986.56
2022-09-13T09:40:34.226Z,986.54
2022-09-13T09:41:34.128Z,986.51
2022-09-13T09:42:34.119Z,986.49
2022-09-13T09:43:33.581Z,986.47
2022-09-13T09:44:34.116Z,986.48
2022-09-13T09:45:34.108Z,986.51
2022-09-13T09:46:34.816Z,986.53
2022-09-13T09:47:33.961Z,986.53
2022-09-13T09:48:33.119Z,986.53
2022-09-13T09:49:33.090Z,986.51
2022-09-13T09:50:33.087Z,986.48
2022-09-13T09:51:33.060Z,986.44
2022-09-13T09:52:33.093Z,986.39
2022-09-13T09:53:36.817Z,986.33
2022-09-13T09:54:33.027Z,986.33
2022-09-13T09:55:34.007Z,986.38
2022-09-13T09:56:33.021Z,986.34
2022-09-13T09:57:33.609Z,986.34
2022-09-13T09:58:33.010Z,986.35
2022-09-13T09:59:32.979Z,986.31
2022-09-13T10:00:33.926Z,986.29
2022-09-13T10:01:34.010Z,986.29
2022-09-13T10:02:33.003Z,986.20
2022-09-13T10:03:34.689Z,986.23
2022-09-13T10:04:32.968Z,986.24
2022-09-13T10:05:33.966Z,986.25
2022-09-13T10:06:32.927Z,986.30
2022-09-13T10:07:32.961Z,986.34
2022-09-13T10:08:32.912Z,986.30
2022-09-13T10:09:33.055Z,986.35
2022-09-13T10:10:33.069Z,986.36
2022-09-13T10:11:33.849Z,986.34
2022-09-13T10:12:32.839Z,986.36
2022-09-13T10:13:32.848Z,986.29
2022-09-13T10:14:32.828Z,986.29
2022-09-13T10:15:32.808Z,986.28
2022-09-13T10:16:32.832Z,986.22
2022-09-13T10:17:32.819Z,986.23
2022-09-13T10:18:44.023Z,986.20
2022-09-13T10:19:33.798Z,986.22
2022-09-13T10:20:33.741Z,986.18
2022-09-13T10:21:33.721Z,986.19
2022-09-13T10:22:33.740Z,986.16
2022-09-13T10:23:32.808Z,986.20
2022-09-13T10:24:33.671Z,986.17
2022-09-13T10:25:32.709Z,986.11
2022-09-13T10:26:32.789Z,986.09
2022-09-13T10:27:32.709Z,986.10
2022-09-13T10:28:32.689Z,986.10
2022-09-13T10:29:32.660Z,986.14
2022-09-13T10:30:32.685Z,986.09
2022-09-13T10:31:32.671Z,986.14
2022-09-13T10:32:32.659Z,986.09
2022-09-13T10:33:33.630Z,986.10
2022-09-13T10:34:32.649Z,986.10
2022-09-13T10:35:32.600Z,986.11
2022-09-13T10:36:51.801Z,986.08
2022-09-13T10:37:33.572Z,986.04
2022-09-13T10:38:32.580Z,986.05
2022-09-13T10:39:32.572Z,986.05
2022-09-13T10:40:33.232Z,986.05
2022-09-13T10:41:32.555Z,986.03
2022-09-13T10:42:32.542Z,986.02
2022-09-13T10:43:32.521Z,985.97
2022-09-13T10:44:33.470Z,985.96
2022-09-13T10:45:32.502Z,985.93
2022-09-13T10:46:32.488Z,985.93
2022-09-13T10:47:32.491Z,985.90
2022-09-13T10:48:32.521Z,985.88
2022-09-13T10:49:32.471Z,985.86
2022-09-13T10:50:32.503Z,985.84
2022-09-13T10:51:32.459Z,985.87
2022-09-13T10:52:32.553Z,985.84
2022-09-13T10:53:32.433Z,985.78
2022-09-13T10:54:32.413Z,985.79
2022-09-13T10:55:32.432Z,985.77
2022-09-13T10:56:32.535Z,985.78
2022-09-13T10:57:32.390Z,985.80
2022-09-13T10:58:32.368Z,985.83
2022-09-13T10:59:32.423Z,985.83
2022-09-13T11:00:32.339Z,985.82
2022-09-13T11:01:34.866Z,985.87
2022-09-13T11:02:32.372Z,985.79
2022-09-13T11:03:33.293Z,985.81
2022-09-13T11:04:32.411Z,985.82
2022-09-13T11:05:32.292Z,985.81
2022-09-13T11:06:32.344Z,985.77
2022-09-13T11:07:32.342Z,985.76
2022-09-13T11:08:32.287Z,985.74
2022-09-13T11:09:32.294Z,985.74
2022-09-13T11:10:32.234Z,985.73
2022-09-13T11:11:32.224Z,985.68
2022-09-13T11:12:32.204Z,985.75
2022-09-13T11:13:32.240Z,985.73
2022-09-13T11:14:32.221Z,985.72
2022-09-13T11:15:32.175Z,985.73
2022-09-13T11:16:32.266Z,985.80
2022-09-13T11:17:32.173Z,985.81
2022-09-13T11:18:33.115Z,985.82
2022-09-13T11:19:32.565Z,985.82
2022-09-13T11:20:32.197Z,985.81
2022-09-13T11:21:32.135Z,985.83
2022-09-13T11:22:32.185Z,985.86
2022-09-13T11:23:32.130Z,985.88
2022-09-13T11:24:32.114Z,985.85
2022-09-13T11:25:32.103Z,985.82
2022-09-13T11:26:34.087Z,985.78
2022-09-13T11:27:33.054Z,985.83
2022-09-13T11:28:32.053Z,985.85
2022-09-13T11:29:32.033Z,985.78
2022-09-13T11:30:32.024Z,985.83
2022-09-13T11:31:32.116Z,985.82
2022-09-13T11:32:32.025Z,985.83
2022-09-13T11:33:32.026Z,985.84
2022-09-13T11:34:31.986Z,985.80
2022-09-13T11:35:31.986Z,985.82
2022-09-13T11:36:31.991Z,985.80
2022-09-13T11:37:31.956Z,985.78
2022-09-13T11:38:31.976Z,985.78
2022-09-13T11:39:31.956Z,985.78
2022-09-13T11:40:32.986Z,985.83
2022-09-13T11:41:31.924Z,985.84
2022-09-13T11:42:33.074Z,985.89
2022-09-13T11:43:31.985Z,985.89
2022-09-13T11:44:31.905Z,985.86
2022-09-13T11:45:31.916Z,985.87
2022-09-13T11:46:31.865Z,985.92
2022-09-13T11:47:31.857Z,985.86
2022-09-13T11:48:31.847Z,985.83
2022-09-13T11:49:31.868Z,985.86
2022-09-13T11:50:31.837Z,985.80
2022-09-13T11:51:31.819Z,985.81
2022-09-13T11:52:31.810Z,985.79
2022-09-13T11:53:32.748Z,985.84
2022-09-13T11:54:31.787Z,985.89
2022-09-13T11:55:31.786Z,985.86
2022-09-13T11:56:31.745Z,985.77
2022-09-13T11:57:31.795Z,985.82
2022-09-13T11:58:31.757Z,985.83
2022-09-13T11:59:31.715Z,985.81
2022-09-13T12:00:31.736Z,985.81
2022-09-13T12:01:31.706Z,985.76
2022-09-13T12:02:31.793Z,985.75
2022-09-13T12:03:31.821Z,985.80
2022-09-13T12:04:33.760Z,985.76
2022-09-13T12:05:31.678Z,985.75
2022-09-13T12:06:31.708Z,985.71
2022-09-13T12:07:31.638Z,985.71
2022-09-13T12:08:31.680Z,985.75
2022-09-13T12:09:31.628Z,985.62
2022-09-13T12:10:31.618Z,985.63
2022-09-13T12:11:31.606Z,985.66
2022-09-13T12:12:31.596Z,985.58
2022-09-13T12:13:31.597Z,985.56
2022-09-13T12:14:31.576Z,985.54
2022-09-13T12:15:31.559Z,985.50
2022-09-13T12:16:35.907Z,985.46
2022-09-13T12:17:31.553Z,985.43
2022-09-13T12:18:32.209Z,985.49
2022-09-13T12:19:31.537Z,985.47
2022-09-13T12:20:31.529Z,985.42
2022-09-13T12:21:31.489Z,985.41
2022-09-13T12:22:31.488Z,985.44
2022-09-13T12:23:31.487Z,985.43
2022-09-13T12:24:31.467Z,985.40
2022-09-13T12:25:31.458Z,985.40
2022-09-13T12:26:31.459Z,985.37
2022-09-13T12:27:32.281Z,985.38
2022-09-13T12:28:31.431Z,985.39
2022-09-13T12:29:31.423Z,985.37
2022-09-13T12:30:31.430Z,985.41